createdAt,value
2023-02-05T00:02:26.249Z,25.98
2023-02-05T00:04:53.048Z,30.02
2023-02-05T00:07:19.646Z,28.23
2023-02-05T00:09:46.457Z,28.17
2023-02-05T00:12:13.075Z,28.30
2023-02-05T00:14:39.659Z,30.23
2023-02-05T00:17:06.736Z,28.90
2023-02-05T00:19:33.546Z,23.88
2023-02-05T00:22:00.363Z,22.02
2023-02-05T00:24:26.930Z,23.60
2023-02-05T00:26:53.513Z,23.42
2023-02-05T00:29:20.192Z,24.48
2023-02-05T00:31:46.819Z,21.42
2023-02-05T00:34:13.470Z,22.77
2023-02-05T00:36:40.065Z,19.83
2023-02-05T00:39:06.670Z,17.38
2023-02-05T00:41:33.189Z,13.63
2023-02-05T00:43:59.812Z,15.85
2023-02-05T00:46:26.600Z,15.20
2023-02-05T00:48:53.294Z,17.40
2023-02-05T00:51:20.094Z,14.75
2023-02-05T00:53:46.710Z,16.02
2023-02-05T00:56:13.677Z,17.70
2023-02-05T00:58:40.360Z,17.75
2023-02-05T01:01:07.021Z,18.75
2023-02-05T01:03:33.895Z,20.75
2023-02-05T01:06:01.054Z,16.50
2023-02-05T01:08:27.752Z,17.23
2023-02-05T01:10:54.410Z,18.10
2023-02-05T01:13:21.012Z,15.65
2023-02-05T01:15:47.755Z,17.52
2023-02-05T01:18:14.539Z,17.50
2023-02-05T01:20:42.134Z,20.77
2023-02-05T01:23:09.952Z,14.63
2023-02-05T01:25:36.959Z,18.83
2023-02-05T01:28:03.929Z,16.35
2023-02-05T01:30:30.696Z,15.90
2023-02-05T01:32:57.467Z,15.90
2023-02-05T01:35:24.384Z,15.98
2023-02-05T01:37:51.093Z,18.35
2023-02-05T01:40:18.829Z,15.70
2023-02-05T01:42:45.818Z,15.20
2023-02-05T01:45:21.761Z,18.08
2023-02-05T01:47:50.243Z,18.58
2023-02-05T01:50:21.831Z,14.00
2023-02-05T01:52:48.706Z,14.15
2023-02-05T01:55:16.044Z,14.00
2023-02-05T01:57:43.121Z,14.70
2023-02-05T02:00:10.580Z,15.10
2023-02-05T02:02:38.355Z,14.85
2023-02-05T02:05:12.183Z,16.15
2023-02-05T02:07:40.567Z,12.05
2023-02-05T02:10:09.801Z,12.73
2023-02-05T02:12:39.621Z,14.13
2023-02-05T02:15:12.433Z,11.32
2023-02-05T02:17:43.055Z,13.23
2023-02-05T02:20:16.976Z,13.85
2023-02-05T02:22:55.528Z,12.07
2023-02-05T02:25:40.298Z,15.05
2023-02-05T02:28:18.089Z,10.82
2023-02-05T02:31:04.333Z,13.75
2023-02-05T02:33:58.354Z,12.55
2023-02-05T02:36:33.709Z,11.93
2023-02-05T02:39:20.873Z,14.75
2023-02-05T02:42:05.151Z,12.20
2023-02-05T02:44:48.613Z,12.18
2023-02-05T02:47:22.324Z,12.77
2023-02-05T02:49:55.555Z,15.32
2023-02-05T02:52:25.739Z,11.35
2023-02-05T02:54:57.605Z,11.10
2023-02-05T02:57:27.118Z,15.23
2023-02-05T02:59:58.415Z,13.93
2023-02-05T03:02:26.924Z,10.30
2023-02-05T03:05:02.671Z,12.38
2023-02-05T03:07:37.730Z,14.02
2023-02-05T03:10:13.692Z,15.15
2023-02-05T03:12:40.035Z,12.75
2023-02-05T03:15:07.669Z,12.50
2023-02-05T03:17:34.748Z,12.13
2023-02-05T03:20:09.721Z,11.13
2023-02-05T03:22:36.008Z,10.43
2023-02-05T03:25:03.982Z,12.02
2023-02-05T03:27:30.592Z,8.20
2023-02-05T03:29:57.264Z,8.88
2023-02-05T03:32:36.416Z,10.30
2023-02-05T03:35:19.688Z,8.27
2023-02-05T03:38:00.486Z,10.05
2023-02-05T03:40:32.736Z,11.82
2023-02-05T03:43:31.287Z,8.18
2023-02-05T03:46:35.873Z,9.93
2023-02-05T03:49:21.800Z,9.65
2023-02-05T03:51:58.079Z,7.18
2023-02-05T03:54:47.499Z,8.43
2023-02-05T03:57:28.325Z,8.80
2023-02-05T03:59:56.242Z,8.35
2023-02-05T04:02:23.205Z,8.00
2023-02-05T04:04:49.602Z,9.90
2023-02-05T04:07:15.972Z,14.40
2023-02-05T04:09:42.312Z,8.35
2023-02-05T04:12:10.072Z,8.50
2023-02-05T04:14:37.021Z,9.00
2023-02-05T04:17:03.372Z,6.65
2023-02-05T04:19:29.774Z,7.03
2023-02-05T04:21:56.076Z,7.25
2023-02-05T04:24:22.475Z,12.25
2023-02-05T04:26:48.756Z,7.35
2023-02-05T04:29:15.314Z,8.35
2023-02-05T04:31:41.662Z,9.20
2023-02-05T04:34:08.006Z,7.15
2023-02-05T04:36:34.309Z,8.00
2023-02-05T04:39:00.631Z,10.25
2023-02-05T04:41:26.983Z,9.82
2023-02-05T04:43:53.288Z,9.95
2023-02-05T04:46:19.629Z,9.70
2023-02-05T04:48:45.941Z,10.85
2023-02-05T04:51:14.386Z,9.57
2023-02-05T04:53:40.903Z,6.32
2023-02-05T04:56:09.974Z,9.40
2023-02-05T04:58:36.642Z,7.78
2023-02-05T05:01:03.497Z,10.77
2023-02-05T05:03:30.207Z,10.18
2023-02-05T05:05:56.846Z,8.43
2023-02-05T05:08:23.188Z,7.35
2023-02-05T05:10:50.054Z,8.23
2023-02-05T05:13:16.442Z,9.35
2023-02-05T05:15:42.893Z,8.90
2023-02-05T05:18:09.211Z,8.98
2023-02-05T05:20:35.489Z,6.78
2023-02-05T05:23:01.832Z,12.48
2023-02-05T05:25:28.299Z,6.90
2023-02-05T05:27:54.650Z,12.30
2023-02-05T05:30:21.131Z,9.07
2023-02-05T05:32:47.522Z,6.95
2023-02-05T05:35:14.046Z,10.77
2023-02-05T05:37:40.343Z,7.22
2023-02-05T05:40:06.965Z,10.50
2023-02-05T05:42:33.406Z,9.48
2023-02-05T05:44:59.708Z,7.60
2023-02-05T05:47:26.070Z,8.95
2023-02-05T05:49:53.288Z,6.60
2023-02-05T05:52:19.695Z,8.63
2023-02-05T05:54:46.081Z,8.52
2023-02-05T05:57:12.449Z,11.95
2023-02-05T05:59:38.812Z,7.03
2023-02-05T06:02:05.608Z,8.77
2023-02-05T06:04:32.013Z,7.85
2023-02-05T06:06:58.360Z,8.18
2023-02-05T06:09:24.936Z,8.65
2023-02-05T06:11:51.342Z,7.35
2023-02-05T06:14:17.680Z,8.18
2023-02-05T06:16:44.153Z,11.07
2023-02-05T06:19:10.446Z,8.60
2023-02-05T06:21:36.749Z,7.80
2023-02-05T06:24:03.434Z,9.27
2023-02-05T06:26:29.735Z,8.77
2023-02-05T06:28:56.038Z,7.47
2023-02-05T06:31:22.794Z,11.07
2023-02-05T06:33:49.159Z,5.40
2023-02-05T06:36:15.553Z,6.47
2023-02-05T06:38:41.944Z,9.05
2023-02-05T06:41:08.261Z,8.85
2023-02-05T06:43:34.578Z,6.70
2023-02-05T06:46:00.950Z,7.28
2023-02-05T06:48:27.364Z,11.60
2023-02-05T06:50:53.779Z,10.80
2023-02-05T06:53:20.075Z,9.70
2023-02-05T06:55:46.491Z,17.50
2023-02-05T06:58:12.951Z,10.68
2023-02-05T07:00:39.381Z,6.90
2023-02-05T07:03:05.715Z,11.23
2023-02-05T07:05:33.984Z,8.43
2023-02-05T07:08:00.630Z,11.20
2023-02-05T07:10:27.175Z,10.40
2023-02-05T07:12:53.590Z,12.52
2023-02-05T07:15:19.907Z,10.63
2023-02-05T07:17:46.263Z,8.57
2023-02-05T07:20:12.593Z,10.65
2023-02-05T07:22:38.932Z,13.30
2023-02-05T07:25:05.517Z,15.52
2023-02-05T07:27:31.818Z,16.95
2023-02-05T07:29:58.119Z,16.67
2023-02-05T07:32:24.435Z,12.93
2023-02-05T07:34:50.753Z,16.67
2023-02-05T07:37:17.070Z,12.73
2023-02-05T07:39:43.354Z,10.73
2023-02-05T07:42:09.750Z,10.60
2023-02-05T07:44:36.056Z,9.65
2023-02-05T07:47:02.423Z,11.25
2023-02-05T07:49:28.716Z,8.15
2023-02-05T07:51:55.018Z,9.73
2023-02-05T07:54:21.346Z,12.13
2023-02-05T07:56:47.631Z,9.25
2023-02-05T07:59:13.996Z,11.90
2023-02-05T08:01:40.282Z,13.02
2023-02-05T08:04:06.689Z,11.80
2023-02-05T08:06:33.845Z,12.90
2023-02-05T08:09:00.153Z,10.52
2023-02-05T08:11:26.497Z,9.50
2023-02-05T08:13:52.897Z,21.10
2023-02-05T08:16:19.295Z,18.90
2023-02-05T08:18:50.259Z,11.43
2023-02-05T08:21:17.521Z,9.98
2023-02-05T08:23:44.032Z,11.60
2023-02-05T08:26:10.528Z,10.90
2023-02-05T08:28:36.856Z,11.55
2023-02-05T08:31:09.797Z,11.68
2023-02-05T08:33:36.094Z,13.25
2023-02-05T08:36:02.450Z,12.75
2023-02-05T08:38:28.780Z,11.15
2023-02-05T08:40:55.076Z,9.90
2023-02-05T08:43:21.429Z,9.60
2023-02-05T08:45:47.769Z,11.60
2023-02-05T08:48:14.107Z,12.38
2023-02-05T08:50:40.608Z,12.05
2023-02-05T08:53:06.922Z,11.05
2023-02-05T08:55:33.484Z,8.77
2023-02-05T08:58:00.312Z,13.07
2023-02-05T09:00:26.713Z,11.43
2023-02-05T09:02:53.008Z,11.93
2023-02-05T09:05:19.347Z,9.57
2023-02-05T09:07:45.665Z,14.02
2023-02-05T09:10:13.082Z,14.50
2023-02-05T09:12:39.790Z,11.65
2023-02-05T09:15:07.604Z,11.32
2023-02-05T09:22:26.508Z,8.52
2023-02-05T09:24:52.808Z,11.55
2023-02-05T09:27:19.131Z,7.90
2023-02-05T09:29:45.506Z,7.60
2023-02-05T09:32:11.801Z,9.15
2023-02-05T09:34:38.141Z,10.63
2023-02-05T09:37:04.488Z,8.68
2023-02-05T09:40:17.319Z,9.02
2023-02-05T09:42:19.929Z,10.75
2023-02-05T09:44:52.229Z,7.35
2023-02-05T09:47:31.661Z,7.40
2023-02-05T09:50:14.390Z,12.70
2023-02-05T09:52:45.159Z,20.17
2023-02-05T09:55:14.408Z,27.77
2023-02-05T09:57:41.752Z,12.25
2023-02-05T10:00:20.372Z,9.70
2023-02-05T10:02:53.357Z,9.40
2023-02-05T10:05:22.469Z,11.13
2023-02-05T10:08:13.140Z,7.22
2023-02-05T10:10:45.604Z,12.70
2023-02-05T10:13:34.751Z,10.30
2023-02-05T10:16:01.074Z,8.85
2023-02-05T10:18:57.580Z,11.18
2023-02-05T10:21:56.260Z,10.10
2023-02-05T10:24:35.097Z,9.57
2023-02-05T10:27:13.600Z,12.10
2023-02-05T10:29:48.391Z,16.10
2023-02-05T10:32:28.524Z,9.48
2023-02-05T10:35:08.858Z,10.63
2023-02-05T10:37:47.745Z,20.50
2023-02-05T10:40:21.418Z,32.70
2023-02-05T10:43:15.451Z,17.85
2023-02-05T10:45:41.823Z,28.02
2023-02-05T10:48:23.432Z,16.60
2023-02-05T10:51:15.979Z,11.65
2023-02-05T10:53:42.985Z,9.48
2023-02-05T10:56:16.929Z,16.60
2023-02-05T10:58:55.411Z,9.98
2023-02-05T11:01:23.888Z,16.02
2023-02-05T11:04:11.403Z,11.88
2023-02-05T11:06:44.774Z,7.88
2023-02-05T11:09:30.450Z,7.90
2023-02-05T11:12:03.973Z,7.35
2023-02-05T11:14:38.941Z,11.40
2023-02-05T11:17:11.007Z,9.55
2023-02-05T11:19:37.756Z,11.45
2023-02-05T11:22:04.898Z,10.52
2023-02-05T11:24:36.290Z,12.13
2023-02-05T11:27:34.567Z,11.40
2023-02-05T11:33:21.236Z,10.15
2023-02-05T11:35:53.243Z,11.02
2023-02-05T11:38:42.164Z,7.60
2023-02-05T11:41:09.927Z,5.55
2023-02-05T11:46:09.595Z,7.38
2023-02-05T11:48:51.832Z,7.05
2023-02-05T11:51:38.951Z,9.93
2023-02-05T11:54:26.124Z,7.75
2023-02-05T11:57:02.857Z,14.52
2023-02-05T11:59:29.175Z,6.30
2023-02-05T12:02:17.392Z,5.95
2023-02-05T12:04:49.468Z,9.18
2023-02-05T12:07:19.781Z,9.40
2023-02-05T12:09:46.153Z,13.63
2023-02-05T12:12:27.641Z,10.10
2023-02-05T12:15:23.062Z,6.30
2023-02-05T12:18:01.485Z,9.73
2023-02-05T12:20:32.936Z,7.13
2023-02-05T12:23:15.704Z,7.00
2023-02-05T12:26:21.828Z,7.32
2023-02-05T12:29:26.024Z,6.68
2023-02-05T12:35:14.803Z,6.82
2023-02-05T12:38:07.302Z,5.68
2023-02-05T12:41:00.042Z,5.75
2023-02-05T12:43:41.896Z,5.53
2023-02-05T12:46:28.517Z,6.78
2023-02-05T12:49:43.465Z,6.65
2023-02-05T12:52:48.215Z,6.53
2023-02-05T12:55:36.733Z,4.82
2023-02-05T12:58:05.674Z,3.95
2023-02-05T13:00:44.261Z,6.07
2023-02-05T13:03:42.480Z,5.22
2023-02-05T13:06:15.892Z,4.82
2023-02-05T13:08:52.994Z,5.70
2023-02-05T13:11:28.201Z,5.63
2023-02-05T13:14:25.537Z,5.60
2023-02-05T13:16:54.424Z,4.95
2023-02-05T13:19:32.379Z,4.93
2023-02-05T13:22:04.103Z,6.40
2023-02-05T13:24:35.735Z,4.93
2023-02-05T13:27:02.394Z,4.93
2023-02-05T13:29:34.307Z,4.22
2023-02-05T13:32:15.280Z,4.22
2023-02-05T13:34:42.466Z,5.07
2023-02-05T13:37:40.503Z,6.68
2023-02-05T13:40:28.678Z,4.50
2023-02-05T13:43:16.803Z,4.57
2023-02-05T13:46:05.808Z,5.45
2023-02-05T13:48:55.366Z,4.47
2023-02-05T13:51:47.051Z,4.05
2023-02-05T13:54:25.162Z,4.90
2023-02-05T13:57:26.914Z,7.15
2023-02-05T13:59:54.576Z,4.22
2023-02-05T14:02:34.356Z,3.13
2023-02-05T14:05:02.570Z,3.42
2023-02-05T14:07:43.151Z,4.63
2023-02-05T14:10:24.564Z,4.13
2023-02-05T14:12:50.981Z,5.28
2023-02-05T14:15:17.236Z,6.03
2023-02-05T14:17:43.481Z,5.88
2023-02-05T14:20:25.052Z,4.95
2023-02-05T14:22:53.439Z,5.10
2023-02-05T14:25:35.417Z,5.10
2023-02-05T14:28:30.525Z,6.82
2023-02-05T14:30:57.890Z,5.03
2023-02-05T14:33:34.633Z,7.00
2023-02-05T14:36:16.068Z,4.30
2023-02-05T14:38:51.040Z,4.45
2023-02-05T14:41:20.819Z,4.57
2023-02-05T14:44:15.900Z,5.82
2023-02-05T14:46:52.449Z,6.35
2023-02-05T14:49:35.199Z,4.30
2023-02-05T14:52:04.859Z,4.60
2023-02-05T14:54:42.145Z,6.13
2023-02-05T14:57:23.510Z,5.30
2023-02-05T14:59:56.176Z,4.05
2023-02-05T15:02:50.448Z,5.40
2023-02-05T15:05:45.722Z,7.65
2023-02-05T15:08:18.070Z,6.45
2023-02-05T15:10:51.417Z,5.57
2023-02-05T15:13:19.984Z,5.78
2023-02-05T15:16:12.472Z,7.65
2023-02-05T15:18:41.286Z,5.03
2023-02-05T15:21:17.193Z,4.95
2023-02-05T15:23:52.583Z,6.05
2023-02-05T15:26:35.926Z,5.70
2023-02-05T15:29:25.718Z,6.60
2023-02-05T15:31:55.471Z,9.85
2023-02-05T15:34:33.700Z,10.43
2023-02-05T15:37:08.832Z,15.73
2023-02-05T15:39:50.503Z,16.48
2023-02-05T15:42:20.224Z,12.18
2023-02-05T15:44:46.941Z,4.55
2023-02-05T15:47:24.669Z,8.88
2023-02-05T15:50:00.139Z,8.02
2023-02-05T15:52:30.001Z,5.20
2023-02-05T15:55:00.161Z,6.13
2023-02-05T15:57:29.836Z,7.25
2023-02-05T15:59:58.141Z,9.43
2023-02-05T16:02:27.236Z,6.20
2023-02-05T16:04:56.827Z,6.60
2023-02-05T16:07:26.331Z,6.70
2023-02-05T16:09:58.665Z,5.95
2023-02-05T16:12:25.889Z,5.47
2023-02-05T16:15:01.159Z,7.13
2023-02-05T16:17:49.858Z,8.60
2023-02-05T16:20:24.383Z,5.38
2023-02-05T16:22:59.723Z,6.00
2023-02-05T16:25:37.128Z,4.82
2023-02-05T16:28:13.099Z,4.38
2023-02-05T16:30:45.874Z,4.95
2023-02-05T16:33:26.366Z,5.65
2023-02-05T16:35:53.791Z,7.05
2023-02-05T16:38:22.124Z,3.03
2023-02-05T16:40:58.794Z,4.20
2023-02-05T16:43:25.166Z,4.93
2023-02-05T16:46:06.505Z,4.28
2023-02-05T16:49:16.333Z,3.35
2023-02-05T16:51:45.435Z,4.18
2023-02-05T16:54:11.702Z,4.63
2023-02-05T16:56:58.304Z,5.68
2023-02-05T16:59:33.072Z,4.15
2023-02-05T17:02:00.035Z,5.25
2023-02-05T17:04:36.050Z,4.65
2023-02-05T17:07:04.957Z,5.13
2023-02-05T17:09:34.850Z,6.72
2023-02-05T17:12:19.750Z,8.75
2023-02-05T17:14:56.843Z,7.20
2023-02-05T17:17:24.501Z,7.63
2023-02-05T17:20:19.235Z,8.65
2023-02-05T17:23:00.662Z,8.95
2023-02-05T17:25:37.834Z,9.10
2023-02-05T17:28:07.035Z,10.45
2023-02-05T17:30:34.749Z,8.35
2023-02-05T17:35:31.556Z,18.08
2023-02-05T17:37:57.859Z,16.92
2023-02-05T17:40:24.142Z,13.55
2023-02-05T17:42:50.839Z,11.75
2023-02-05T17:45:20.989Z,10.63
2023-02-05T17:47:47.340Z,11.80
2023-02-05T17:50:13.805Z,12.55
2023-02-05T17:52:40.131Z,13.30
2023-02-05T17:55:07.167Z,12.70
2023-02-05T17:57:33.452Z,10.93
2023-02-05T18:00:00.643Z,11.27
2023-02-05T18:02:27.466Z,11.23
2023-02-05T18:04:53.951Z,10.75
2023-02-05T18:07:29.302Z,12.43
2023-02-05T18:09:55.771Z,10.73
2023-02-05T18:12:22.233Z,11.52
2023-02-05T18:14:48.587Z,14.07
2023-02-05T18:17:14.927Z,13.25
2023-02-05T18:19:41.259Z,10.85
2023-02-05T18:22:07.914Z,9.38
2023-02-05T18:24:34.290Z,11.27
2023-02-05T18:27:00.598Z,12.32
2023-02-05T18:29:27.144Z,13.13
2023-02-05T18:31:53.496Z,14.02
2023-02-05T18:34:19.793Z,13.13
2023-02-05T18:36:46.200Z,17.70
2023-02-05T18:39:12.492Z,15.18
2023-02-05T18:41:39.105Z,10.65
2023-02-05T18:44:05.450Z,23.48
2023-02-05T18:46:31.803Z,14.48
2023-02-05T18:48:58.234Z,8.25
2023-02-05T18:51:24.556Z,8.70
2023-02-05T18:53:50.873Z,7.45
2023-02-05T18:56:20.276Z,7.57
2023-02-05T18:58:53.394Z,6.88
2023-02-05T19:01:20.624Z,4.70
2023-02-05T19:03:46.961Z,5.32
2023-02-05T19:06:16.288Z,6.00
2023-02-05T19:08:43.634Z,6.60
2023-02-05T19:11:15.480Z,6.43
2023-02-05T19:13:42.207Z,5.45
2023-02-05T19:16:14.240Z,5.93
2023-02-05T19:18:42.578Z,7.03
2023-02-05T19:21:11.647Z,7.55
2023-02-05T19:23:39.196Z,5.70
2023-02-05T19:26:11.228Z,6.93
2023-02-05T19:28:37.865Z,6.75
2023-02-05T19:31:05.370Z,5.13
2023-02-05T19:33:32.920Z,5.95
2023-02-05T19:36:00.745Z,6.22
2023-02-05T19:40:53.962Z,7.35
2023-02-05T19:43:20.391Z,6.57
2023-02-05T19:45:49.706Z,7.57
2023-02-05T19:48:16.233Z,8.82
2023-02-05T19:50:42.879Z,12.23
2023-02-05T19:53:09.352Z,16.52
2023-02-05T19:55:36.092Z,16.63
2023-02-05T19:58:02.863Z,10.55
2023-02-05T20:00:29.308Z,11.07
2023-02-05T20:02:56.458Z,11.48
2023-02-05T20:05:23.605Z,15.23
2023-02-05T20:07:51.522Z,9.48
2023-02-05T20:12:44.549Z,11.90
2023-02-05T20:15:11.212Z,15.15
2023-02-05T20:17:37.496Z,15.40
2023-02-05T20:20:12.629Z,14.27
2023-02-05T20:22:47.969Z,15.65
2023-02-05T20:25:14.302Z,16.63
2023-02-05T20:27:40.612Z,18.10
2023-02-05T20:30:07.696Z,15.25
2023-02-05T20:32:33.998Z,17.33
2023-02-05T20:35:00.301Z,15.93
2023-02-05T20:37:26.777Z,19.63
2023-02-05T20:39:53.194Z,15.60
2023-02-05T20:42:19.601Z,20.38
2023-02-05T20:44:45.902Z,16.15
2023-02-05T20:47:14.425Z,15.38
2023-02-05T20:49:41.707Z,16.23
2023-02-05T20:52:09.724Z,15.80
2023-02-05T20:54:36.404Z,15.80
2023-02-05T20:57:02.817Z,16.27
2023-02-05T20:59:30.680Z,14.75
2023-02-05T21:04:26.275Z,12.38
2023-02-05T21:06:52.703Z,13.18
2023-02-05T21:09:19.545Z,15.18
2023-02-05T21:11:46.140Z,14.02
2023-02-05T21:14:12.746Z,11.90
2023-02-05T21:16:39.217Z,15.32
2023-02-05T21:19:07.280Z,13.88
2023-02-05T21:21:36.542Z,19.08
2023-02-05T21:24:12.004Z,17.63
2023-02-05T21:26:40.866Z,18.60
2023-02-05T21:29:10.425Z,17.33
2023-02-05T21:31:43.985Z,17.02
2023-02-05T21:34:13.539Z,16.27
2023-02-05T21:36:40.099Z,21.98
2023-02-05T21:39:06.645Z,19.63
2023-02-05T21:41:33.133Z,20.40
2023-02-05T21:44:00.499Z,21.45
2023-02-05T21:46:28.673Z,18.70
2023-02-05T21:48:56.496Z,17.45
2023-02-05T21:51:25.065Z,19.27
2023-02-05T21:53:53.037Z,17.00
2023-02-05T21:58:45.623Z,16.88
2023-02-05T22:01:20.736Z,19.17
2023-02-05T22:03:52.174Z,20.95
2023-02-05T22:06:20.009Z,22.60
2023-02-05T22:08:46.408Z,21.13
2023-02-05T22:11:12.783Z,21.42
2023-02-05T22:13:41.384Z,17.73
2023-02-05T22:16:07.890Z,18.98
2023-02-05T22:18:35.446Z,22.58
2023-02-05T22:21:26.501Z,18.75
2023-02-05T22:23:54.541Z,19.17
2023-02-05T22:26:23.838Z,17.98
2023-02-05T22:28:50.889Z,17.17
2023-02-05T22:31:19.644Z,14.93
2023-02-05T22:33:48.988Z,13.20
2023-02-05T22:36:18.501Z,16.55
2023-02-05T22:38:44.955Z,15.82
2023-02-05T22:41:13.482Z,16.00
2023-02-05T22:43:40.308Z,15.90
2023-02-05T22:46:09.737Z,17.27
2023-02-05T22:48:37.691Z,17.38
2023-02-05T22:51:06.022Z,20.08
2023-02-05T22:53:32.847Z,15.25
2023-02-05T22:56:04.784Z,17.83
2023-02-05T22:58:31.315Z,16.60
2023-02-05T23:00:58.635Z,18.02
2023-02-05T23:03:25.138Z,15.60
2023-02-05T23:05:51.711Z,19.05
2023-02-05T23:08:18.131Z,25.48
2023-02-05T23:10:44.537Z,26.27
2023-02-05T23:13:10.823Z,22.85
2023-02-05T23:15:37.270Z,18.55
2023-02-05T23:18:03.736Z,19.90
2023-02-05T23:20:30.075Z,19.42
2023-02-05T23:22:56.463Z,19.50
2023-02-05T23:25:22.771Z,19.35
2023-02-05T23:27:49.079Z,17.40
2023-02-05T23:30:15.641Z,23.60
2023-02-05T23:32:42.058Z,18.60
2023-02-05T23:35:08.752Z,21.25
2023-02-05T23:37:35.139Z,18.98
2023-02-05T23:40:01.583Z,24.40
2023-02-05T23:42:28.016Z,19.15
2023-02-05T23:44:54.453Z,20.08
2023-02-05T23:47:20.769Z,22.35
2023-02-05T23:49:47.056Z,18.63
2023-02-05T23:52:13.364Z,23.15
2023-02-05T23:54:39.667Z,20.13
2023-02-05T23:57:06.055Z,16.58
2023-02-05T23:59:32.369Z,17.52
